CZ-0029 weather

Úvn/Central Military Hospital Střešovice -Pavilion Ch 2 Heliport
Prague, Prague (capital city), Czechia

Public forecast

Using degrees Celsius for public forecast. Weather courtesy of forecast.io.

Closest aviation weather report (METAR) to Úvn/Central Military Hospital Střešovice -Pavilion Ch 2 Heliport

Closest report is Václav Havel Airport Prague, 4.0 nm (7.5 km) W. Retrieved 2019/10/22 13:30 UTC (0 seconds ago):

LKPR 221330Z 07004KT 030V090 7000 FEW030 16/13 Q1023 NOSIG

Closest aviation forecast (TAF) to Úvn/Central Military Hospital Střešovice -Pavilion Ch 2 Heliport

Closest forecast is Václav Havel Airport Prague, 4.0 nm (7.5 km) W. Retrieved 2019/10/22 12:30 UTC (60 minutes ago):

TAF LKPR 221100Z 2212/2318 VRB02KT 4000 BR SCT002 OVC003 BECMG 2212/2214 SCT003 TEMPO 2212/2218 01005KT 7000 BECMG 2219/2222 0500 FG BKN002 TEMPO 2222/2309 0300 FG OVC001 BECMG 2309/2312 2500 BR BKN004 TEMPO 2312/2317 5000 BR BKN007 PROB30 TEMPO 2313/2316 SCT010